Time;durP1;ratioP1;P1;durP2;ratioP2;P2;SDS_P1;SDS_P2;PMS_P1;PMS_P2;Temp;Humidity;BMP_temperature;BMP_pressure;BME280_temperature;BME280_humidity;BME280_pressure;Samples;Min_cycle;Max_cycle;Signal;HPM_P1;HPM_P2
2023/05/20 00:00:08;;;;;;;4.93;2.00;;;11.60;99.90;;;;;;5074978;28;20473;-92
2023/05/20 00:02:35;;;;;;;3.13;2.20;;;11.60;99.90;;;;;;5074790;28;20838;-92
2023/05/20 00:05:02;;;;;;;1.73;1.33;;;11.60;99.90;;;;;;5074660;28;21018;-92
2023/05/20 00:07:29;;;;;;;1.97;1.47;;;11.60;99.90;;;;;;5074822;28;20531;-92
2023/05/20 00:09:56;;;;;;;5.30;2.53;;;11.60;99.90;;;;;;5074837;28;20434;-92
2023/05/20 00:12:22;;;;;;;5.20;1.90;;;11.50;99.90;;;;;;5074920;28;20464;-91
2023/05/20 00:14:50;;;;;;;2.50;1.70;;;11.50;99.90;;;;;;5074795;28;20481;-91
2023/05/20 00:17:17;;;;;;;7.30;1.93;;;11.50;99.90;;;;;;5074658;28;20807;-92
2023/05/20 00:19:44;;;;;;;4.83;1.57;;;11.50;99.90;;;;;;5074913;28;20436;-91
2023/05/20 00:22:11;;;;;;;3.93;2.07;;;11.60;99.90;;;;;;5074474;28;20434;-91
2023/05/20 00:24:38;;;;;;;4.93;1.43;;;11.60;99.90;;;;;;5074552;28;20531;-91
2023/05/20 00:27:05;;;;;;;5.20;1.67;;;11.70;99.90;;;;;;5074567;28;20946;-91
2023/05/20 00:29:34;;;;;;;1.90;1.40;;;11.60;99.90;;;;;;5074459;28;20437;-91
2023/05/20 00:32:02;;;;;;;2.80;1.83;;;11.60;99.90;;;;;;5074426;28;20410;-91
2023/05/20 00:34:28;;;;;;;1.93;1.10;;;11.60;99.90;;;;;;5075023;28;20492;-91
2023/05/20 00:36:55;;;;;;;2.30;1.80;;;11.70;99.90;;;;;;5074605;28;20449;-91
2023/05/20 00:39:22;;;;;;;1.23;1.13;;;11.70;99.90;;;;;;5074604;28;20453;-91
2023/05/20 00:41:49;;;;;;;3.50;1.50;;;11.70;99.90;;;;;;5074665;28;20468;-91
2023/05/20 00:44:17;;;;;;;3.67;2.60;;;11.70;99.90;;;;;;5074223;28;20457;-91
2023/05/20 00:46:44;;;;;;;3.07;2.40;;;11.70;99.90;;;;;;5074839;28;20446;-91
2023/05/20 00:49:12;;;;;;;3.73;1.30;;;11.80;99.90;;;;;;5074454;28;20450;-91
2023/05/20 00:51:39;;;;;;;4.20;2.23;;;11.80;99.90;;;;;;5074213;28;20434;-91
2023/05/20 00:54:06;;;;;;;1.23;1.13;;;11.70;99.90;;;;;;5074127;28;20965;-91
2023/05/20 00:56:33;;;;;;;1.33;1.30;;;11.80;99.90;;;;;;5074245;28;20477;-91
2023/05/20 00:59:00;;;;;;;1.20;1.00;;;11.80;99.90;;;;;;5074328;28;20434;-91
2023/05/20 01:01:26;;;;;;;1.10;1.10;;;11.80;99.90;;;;;;5074596;28;20453;-91
2023/05/20 01:03:53;;;;;;;1.47;1.37;;;11.90;99.90;;;;;;5074073;28;20492;-91
2023/05/20 01:06:21;;;;;;;1.97;1.40;;;11.90;99.90;;;;;;5074772;28;20441;-91
2023/05/20 01:08:48;;;;;;;2.50;1.57;;;11.80;99.90;;;;;;5074524;28;20433;-91
2023/05/20 01:11:22;;;;;;;1.10;1.00;;;11.80;99.90;;;;;;5074307;28;20436;-91
2023/05/20 01:13:54;;;;;;;1.53;1.43;;;11.80;99.90;;;;;;5074434;28;20458;-91
2023/05/20 01:16:23;;;;;;;1.53;1.43;;;11.80;99.90;;;;;;5074043;28;20983;-91
2023/05/20 01:18:54;;;;;;;1.00;1.00;;;11.80;99.90;;;;;;5073977;28;20434;-91
2023/05/20 01:21:22;;;;;;;2.50;1.60;;;11.90;99.90;;;;;;5074090;28;20505;-91
2023/05/20 01:23:50;;;;;;;2.17;1.33;;;11.80;99.90;;;;;;5074069;28;20548;-91
2023/05/20 01:26:18;;;;;;;2.33;1.47;;;11.80;99.90;;;;;;5074858;28;20446;-91
2023/05/20 01:28:45;;;;;;;5.63;2.30;;;11.80;99.90;;;;;;5074312;28;20442;-91
2023/05/20 01:31:26;;;;;;;1.53;1.00;;;11.80;99.90;;;;;;5073805;28;20948;-91
2023/05/20 01:33:57;;;;;;;3.87;2.07;;;11.80;99.90;;;;;;5074187;28;20507;-91
2023/05/20 01:36:25;;;;;;;1.60;1.50;;;11.90;99.90;;;;;;5073998;28;20473;-91
2023/05/20 01:38:54;;;;;;;1.63;1.20;;;11.80;99.90;;;;;;5074084;28;20444;-91
2023/05/20 01:41:21;;;;;;;2.40;2.03;;;11.90;99.90;;;;;;5076347;28;20807;-91
2023/05/20 01:43:48;;;;;;;1.77;1.50;;;11.90;99.90;;;;;;5077514;28;20453;-91
2023/05/20 01:46:15;;;;;;;2.63;1.90;;;11.90;99.90;;;;;;5077698;28;20441;-91
2023/05/20 01:48:42;;;;;;;2.10;1.83;;;11.90;99.90;;;;;;5077397;28;20444;-91
2023/05/20 01:51:09;;;;;;;1.33;1.23;;;11.80;99.90;;;;;;5077719;28;20433;-91
2023/05/20 01:53:36;;;;;;;1.10;1.10;;;11.80;99.90;;;;;;5077302;28;20470;-91
2023/05/20 01:56:05;;;;;;;2.47;1.20;;;11.80;99.90;;;;;;5077456;28;20473;-91
2023/05/20 01:58:32;;;;;;;1.70;1.60;;;11.80;99.90;;;;;;5077576;28;20948;-91
2023/05/20 02:00:59;;;;;;;2.23;1.37;;;11.80;99.90;;;;;;5078038;28;20801;-91
2023/05/20 02:03:26;;;;;;;1.60;1.40;;;11.80;99.90;;;;;;5077257;28;20866;-91
2023/05/20 02:05:53;;;;;;;1.53;1.43;;;11.80;99.90;;;;;;5077467;28;20452;-91
2023/05/20 02:08:19;;;;;;;1.30;1.20;;;11.90;99.90;;;;;;5077074;28;20433;-91
2023/05/20 02:10:48;;;;;;;3.80;2.00;;;11.90;99.90;;;;;;5077038;28;20944;-91
2023/05/20 02:13:16;;;;;;;3.23;1.90;;;11.90;99.90;;;;;;5077004;28;20453;-91
2023/05/20 02:15:43;;;;;;;2.73;2.00;;;11.90;99.90;;;;;;5076887;28;20490;-91
2023/05/20 02:18:11;;;;;;;1.60;1.50;;;11.90;99.90;;;;;;5077118;28;20438;-91
2023/05/20 02:20:38;;;;;;;1.70;1.23;;;11.90;99.90;;;;;;5077570;28;20466;-91
2023/05/20 02:23:05;;;;;;;2.57;1.90;;;11.90;99.90;;;;;;5076823;28;20438;-91
2023/05/20 02:25:32;;;;;;;1.40;1.30;;;11.90;99.90;;;;;;5077101;28;20434;-91
2023/05/20 02:27:59;;;;;;;1.40;1.30;;;12.00;99.90;;;;;;5077153;28;20434;-91
2023/05/20 02:30:27;;;;;;;1.50;1.40;;;12.00;99.90;;;;;;5076982;28;20437;-91
2023/05/20 02:32:54;;;;;;;5.20;1.80;;;12.00;99.90;;;;;;5077025;28;20436;-91
2023/05/20 02:35:21;;;;;;;1.43;1.33;;;12.00;99.90;;;;;;5077107;28;20564;-91
2023/05/20 02:37:47;;;;;;;1.80;1.60;;;12.00;99.90;;;;;;5076814;28;20434;-91
2023/05/20 02:40:14;;;;;;;5.70;1.30;;;11.90;99.90;;;;;;5076663;28;20440;-91
2023/05/20 02:42:41;;;;;;;1.43;1.23;;;12.00;99.90;;;;;;5076812;28;20461;-91
2023/05/20 02:45:08;;;;;;;1.57;1.23;;;12.00;99.90;;;;;;5076539;28;20532;-91
2023/05/20 02:47:37;;;;;;;3.10;1.50;;;11.90;99.90;;;;;;5076533;28;20434;-91
2023/05/20 02:50:04;;;;;;;1.77;1.60;;;11.90;99.90;;;;;;5076777;28;20434;-90
2023/05/20 02:52:31;;;;;;;2.33;2.13;;;11.90;99.90;;;;;;5076236;28;20442;-91
2023/05/20 02:54:58;;;;;;;1.40;1.30;;;11.90;99.90;;;;;;5076228;28;20468;-91
2023/05/20 02:57:26;;;;;;;1.53;1.43;;;11.90;99.90;;;;;;5076358;28;20438;-91
2023/05/20 02:59:52;;;;;;;1.33;1.20;;;11.90;99.90;;;;;;5076636;28;20455;-91
2023/05/20 03:02:19;;;;;;;1.60;1.40;;;11.90;99.90;;;;;;5080446;28;20445;-90
2023/05/20 03:04:49;;;;;;;1.93;1.37;;;11.90;99.90;;;;;;5076406;28;20488;-91
2023/05/20 03:07:18;;;;;;;2.70;1.50;;;11.90;99.90;;;;;;5076371;28;20433;-91
2023/05/20 03:09:45;;;;;;;1.67;1.50;;;11.90;99.90;;;;;;5077014;28;20458;-91
2023/05/20 03:12:11;;;;;;;1.93;1.70;;;11.90;99.90;;;;;;5076218;28;20433;-91
2023/05/20 03:14:38;;;;;;;2.70;1.60;;;11.90;99.90;;;;;;5075972;28;20460;-91
2023/05/20 03:17:05;;;;;;;2.10;1.73;;;11.90;99.90;;;;;;5076026;28;20484;-91
2023/05/20 03:19:32;;;;;;;2.03;1.83;;;11.80;99.90;;;;;;5075982;28;20806;-91
2023/05/20 03:22:00;;;;;;;2.13;1.50;;;11.90;99.90;;;;;;5076331;28;20460;-92
2023/05/20 03:24:27;;;;;;;2.17;1.53;;;11.80;99.90;;;;;;5075954;28;20453;-91
2023/05/20 03:26:54;;;;;;;3.27;2.13;;;11.80;99.90;;;;;;5075747;28;20449;-91
2023/05/20 03:29:22;;;;;;;3.57;1.93;;;11.80;99.90;;;;;;5075750;28;20533;-91
2023/05/20 03:31:49;;;;;;;3.00;1.60;;;11.80;99.90;;;;;;5075860;28;20440;-91
2023/05/20 03:34:16;;;;;;;2.60;1.60;;;11.80;99.90;;;;;;5075881;28;20457;-91
2023/05/20 03:36:43;;;;;;;2.67;1.80;;;11.80;99.90;;;;;;5075474;28;20481;-92
2023/05/20 03:39:11;;;;;;;1.50;1.27;;;11.80;99.90;;;;;;5075562;28;20943;-91
2023/05/20 03:41:38;;;;;;;1.00;1.00;;;11.80;99.90;;;;;;5075499;28;20829;-91
2023/05/20 03:44:05;;;;;;;2.10;2.00;;;11.80;99.90;;;;;;5075717;28;20476;-91
2023/05/20 03:46:33;;;;;;;2.40;1.43;;;11.80;99.90;;;;;;5075214;28;20445;-92
2023/05/20 03:49:00;;;;;;;3.90;1.37;;;11.80;99.90;;;;;;5075142;28;20499;-91
2023/05/20 03:51:27;;;;;;;4.10;2.03;;;11.90;99.90;;;;;;5075660;28;20445;-92
2023/05/20 03:53:54;;;;;;;2.40;1.53;;;11.90;99.90;;;;;;5075475;28;20461;-92
2023/05/20 03:56:22;;;;;;;1.57;1.30;;;11.90;99.90;;;;;;5075419;28;20484;-92
2023/05/20 03:58:50;;;;;;;3.13;1.73;;;11.90;99.90;;;;;;5075382;28;20537;-91
2023/05/20 04:01:17;;;;;;;1.37;1.20;;;11.90;99.90;;;;;;5075569;28;20453;-92
2023/05/20 04:03:43;;;;;;;1.67;1.57;;;12.00;99.90;;;;;;5074991;28;20496;-92
2023/05/20 04:06:10;;;;;;;2.87;1.57;;;11.90;99.90;;;;;;5075477;28;20453;-91
2023/05/20 04:08:37;;;;;;;3.60;1.73;;;12.00;99.90;;;;;;5075957;28;20433;-92
2023/05/20 04:11:04;;;;;;;2.27;1.63;;;11.90;99.90;;;;;;5075852;28;20442;-92
2023/05/20 04:13:32;;;;;;;1.47;1.37;;;12.00;99.90;;;;;;5075612;28;20548;-92
2023/05/20 04:16:00;;;;;;;4.63;2.20;;;12.00;99.90;;;;;;5076128;28;20992;-92
2023/05/20 04:18:28;;;;;;;1.10;1.00;;;12.00;99.90;;;;;;5075364;28;20879;-92
2023/05/20 04:20:56;;;;;;;2.43;1.30;;;12.00;99.90;;;;;;5075045;28;20833;-91
2023/05/20 04:23:22;;;;;;;2.00;1.80;;;12.10;99.90;;;;;;5074833;28;20453;-92
2023/05/20 04:25:49;;;;;;;3.70;1.80;;;12.00;99.90;;;;;;5074729;28;20442;-92
2023/05/20 04:28:16;;;;;;;1.40;1.20;;;12.10;99.90;;;;;;5074850;28;20450;-92
2023/05/20 04:30:45;;;;;;;2.07;1.87;;;12.10;99.90;;;;;;5074821;28;20414;-92
2023/05/20 04:33:13;;;;;;;1.87;1.40;;;12.10;99.90;;;;;;5074678;28;20977;-91
2023/05/20 04:35:41;;;;;;;1.87;1.60;;;12.20;99.90;;;;;;5074600;28;20503;-92
2023/05/20 04:38:08;;;;;;;2.40;1.70;;;12.20;99.90;;;;;;5074628;28;20450;-90
2023/05/20 04:40:35;;;;;;;3.13;1.63;;;12.20;99.90;;;;;;5074385;28;20438;-92
2023/05/20 04:43:02;;;;;;;2.20;1.70;;;12.30;99.90;;;;;;5074799;28;20456;-92
2023/05/20 04:45:29;;;;;;;1.17;1.10;;;12.40;99.90;;;;;;5074647;28;20477;-92
2023/05/20 04:47:57;;;;;;;4.50;2.17;;;12.30;99.90;;;;;;5074630;28;20434;-92
2023/05/20 04:50:24;;;;;;;1.83;1.50;;;12.30;99.90;;;;;;5074427;28;20930;-92
2023/05/20 04:52:51;;;;;;;4.60;2.07;;;12.40;99.90;;;;;;5074253;28;20429;-92
2023/05/20 04:55:18;;;;;;;3.27;1.87;;;12.40;99.90;;;;;;5074444;28;20469;-91
2023/05/20 04:57:45;;;;;;;2.23;1.77;;;12.40;99.90;;;;;;5074863;28;20485;-92
2023/05/20 05:00:13;;;;;;;1.87;1.73;;;12.50;99.90;;;;;;5074249;28;20444;-92
2023/05/20 05:02:40;;;;;;;4.87;1.97;;;12.50;99.90;;;;;;5074013;28;20484;-91
2023/05/20 05:05:09;;;;;;;1.63;1.53;;;12.60;99.90;;;;;;5074378;28;20468;-92
2023/05/20 05:07:35;;;;;;;1.90;1.30;;;12.70;99.90;;;;;;5074269;28;20450;-92
2023/05/20 05:10:02;;;;;;;1.37;1.17;;;12.60;99.90;;;;;;5074284;28;20458;-91
2023/05/20 05:12:29;;;;;;;2.23;1.70;;;12.70;99.90;;;;;;5074091;28;20487;-91
2023/05/20 05:14:57;;;;;;;2.37;1.80;;;12.70;99.90;;;;;;5076288;28;21033;-84
2023/05/20 05:17:24;;;;;;;1.27;1.13;;;12.70;99.90;;;;;;5080488;28;20576;-90
2023/05/20 05:19:51;;;;;;;2.67;1.63;;;12.70;99.90;;;;;;5078645;28;20446;-91
2023/05/20 05:22:19;;;;;;;1.43;1.33;;;12.80;99.90;;;;;;5078189;28;20449;-90
2023/05/20 05:24:46;;;;;;;1.97;1.80;;;12.80;99.90;;;;;;5078421;28;20981;-90
2023/05/20 05:27:12;;;;;;;1.53;1.20;;;12.90;99.90;;;;;;5078060;28;20441;-91
2023/05/20 05:29:39;;;;;;;3.10;1.50;;;13.00;99.90;;;;;;5078337;28;20449;-90
2023/05/20 05:32:07;;;;;;;2.60;2.07;;;12.90;99.90;;;;;;5078122;28;20440;-90
2023/05/20 05:34:33;;;;;;;1.70;1.60;;;13.00;99.90;;;;;;5077970;28;21007;-91
2023/05/20 05:37:00;;;;;;;3.97;1.60;;;13.00;99.90;;;;;;5077746;28;20473;-91
2023/05/20 05:39:28;;;;;;;1.53;1.43;;;13.00;99.90;;;;;;5078250;28;20445;-91
2023/05/20 05:41:56;;;;;;;3.00;1.90;;;13.10;99.90;;;;;;5077794;28;20485;-90
2023/05/20 05:44:22;;;;;;;2.13;1.40;;;13.20;99.90;;;;;;5077609;28;20473;-91
2023/05/20 05:46:49;;;;;;;2.47;1.43;;;13.40;99.90;;;;;;5077700;28;20449;-90
2023/05/20 05:49:16;;;;;;;1.90;1.80;;;13.50;99.90;;;;;;5077596;28;20430;-90
2023/05/20 05:51:42;;;;;;;4.60;2.23;;;13.50;99.90;;;;;;5077580;28;20459;-91
2023/05/20 05:54:09;;;;;;;3.17;1.40;;;13.50;99.90;;;;;;5077235;28;20476;-90
2023/05/20 05:56:37;;;;;;;1.73;1.20;;;13.70;99.90;;;;;;5077310;28;20479;-90
2023/05/20 05:59:05;;;;;;;2.50;1.60;;;13.80;99.90;;;;;;5077230;28;20445;-90
2023/05/20 06:01:32;;;;;;;2.23;1.50;;;14.00;99.90;;;;;;5077422;28;20940;-89
2023/05/20 06:03:58;;;;;;;6.70;2.63;;;14.10;99.90;;;;;;5077076;28;20492;-91
2023/05/20 06:06:26;;;;;;;2.30;1.90;;;14.30;99.90;;;;;;5077479;28;20452;-91
2023/05/20 06:08:52;;;;;;;1.70;1.60;;;14.40;99.90;;;;;;5077379;28;20433;-90
2023/05/20 06:11:20;;;;;;;2.37;1.70;;;14.60;99.90;;;;;;5077084;28;20438;-90
2023/05/20 06:13:48;;;;;;;2.00;1.90;;;14.60;99.90;;;;;;5077161;28;20477;-91
2023/05/20 06:16:15;;;;;;;2.77;2.10;;;14.60;99.90;;;;;;5077138;28;21000;-91
2023/05/20 06:18:42;;;;;;;2.10;1.90;;;14.50;99.90;;;;;;5077109;28;20472;-91
2023/05/20 06:21:09;;;;;;;5.27;2.67;;;14.60;99.90;;;;;;5076978;28;20437;-93
2023/05/20 06:23:35;;;;;;;2.40;1.53;;;14.70;99.90;;;;;;5076765;28;20464;-92
2023/05/20 06:26:02;;;;;;;2.10;1.70;;;15.00;99.90;;;;;;5076543;28;20926;-92
2023/05/20 06:28:29;;;;;;;2.80;2.10;;;15.10;99.90;;;;;;5077153;28;20430;-90
2023/05/20 06:30:57;;;;;;;4.00;2.40;;;15.10;99.90;;;;;;5077069;28;20449;-91
2023/05/20 06:33:25;;;;;;;2.53;1.60;;;15.00;99.90;;;;;;5076638;28;20460;-93
2023/05/20 06:35:52;;;;;;;2.93;1.57;;;15.00;99.90;;;;;;5077011;28;20449;-92
2023/05/20 06:38:19;;;;;;;1.43;1.30;;;14.90;99.90;;;;;;5076718;28;20513;-91
2023/05/20 06:40:47;;;;;;;2.50;2.30;;;14.80;99.90;;;;;;5076710;28;20464;-93
2023/05/20 06:43:14;;;;;;;2.73;1.50;;;14.80;99.90;;;;;;5076906;28;20995;-91
2023/05/20 06:45:41;;;;;;;2.93;2.67;;;14.80;99.90;;;;;;5076912;28;20453;-90
2023/05/20 06:48:09;;;;;;;2.60;2.20;;;14.70;99.90;;;;;;5076865;28;20524;-92
2023/05/20 06:50:36;;;;;;;2.80;1.93;;;14.80;99.90;;;;;;5076402;28;20414;-92
2023/05/20 06:53:04;;;;;;;3.47;1.90;;;15.10;99.90;;;;;;5076316;28;20441;-92
2023/05/20 06:55:31;;;;;;;1.83;1.57;;;15.30;99.90;;;;;;5076497;28;20441;-91
2023/05/20 06:57:57;;;;;;;2.67;2.47;;;15.60;99.90;;;;;;5076387;28;20492;-93
2023/05/20 07:00:24;;;;;;;2.60;2.10;;;15.70;99.90;;;;;;5076766;28;20457;-92
2023/05/20 07:02:51;;;;;;;4.00;1.73;;;15.70;99.90;;;;;;5076230;28;20469;-91
2023/05/20 07:05:19;;;;;;;3.67;2.70;;;15.80;99.90;;;;;;5077243;28;20480;-92
2023/05/20 07:07:46;;;;;;;2.50;2.30;;;15.70;99.90;;;;;;5076525;28;20441;-92
2023/05/20 07:10:13;;;;;;;3.30;2.20;;;15.70;99.90;;;;;;5076793;28;20458;-93
2023/05/20 07:12:39;;;;;;;5.73;3.17;;;15.70;99.90;;;;;;5078486;28;20481;-92
2023/05/20 07:15:07;;;;;;;2.30;1.83;;;15.60;99.90;;;;;;5082857;28;20821;-91
2023/05/20 07:17:34;;;;;;;2.80;2.20;;;15.70;99.90;;;;;;5077045;28;20481;-91
2023/05/20 07:20:02;;;;;;;3.50;2.20;;;15.70;99.90;;;;;;5086277;28;20438;-91
2023/05/20 07:22:31;;;;;;;2.70;2.37;;;15.70;99.90;;;;;;5083319;28;20465;-91
2023/05/20 07:24:58;;;;;;;3.87;2.30;;;15.60;99.90;;;;;;5084355;28;20465;-92
2023/05/20 07:27:25;;;;;;;5.30;2.70;;;15.70;99.90;;;;;;5086683;28;20441;-92
2023/05/20 07:29:51;;;;;;;4.23;2.50;;;15.80;99.90;;;;;;5084553;28;20436;-91
2023/05/20 07:32:18;;;;;;;3.30;2.20;;;15.80;99.90;;;;;;5090586;28;20812;-92
2023/05/20 07:34:45;;;;;;;3.73;2.40;;;15.70;99.90;;;;;;5075730;28;20992;-93
2023/05/20 07:37:12;;;;;;;7.00;2.60;;;15.70;99.90;;;;;;5076469;28;20480;-92
2023/05/20 07:39:40;;;;;;;4.43;2.50;;;15.90;99.90;;;;;;5075119;28;20849;-91
2023/05/20 07:42:07;;;;;;;2.93;2.23;;;16.00;99.90;;;;;;5075861;28;20441;-91
2023/05/20 07:44:34;;;;;;;2.70;2.07;;;16.00;99.90;;;;;;5075431;28;20462;-93
2023/05/20 07:47:01;;;;;;;2.90;2.17;;;16.00;99.90;;;;;;5075390;28;20438;-92
2023/05/20 07:49:27;;;;;;;2.80;2.20;;;15.90;99.90;;;;;;5075556;28;20434;-92
2023/05/20 07:51:54;;;;;;;3.80;2.60;;;16.00;99.90;;;;;;5075538;28;20449;-93
2023/05/20 07:54:21;;;;;;;4.33;2.40;;;16.40;99.90;;;;;;5075579;28;20460;-91
2023/05/20 07:56:49;;;;;;;2.23;2.03;;;16.60;99.90;;;;;;5075435;28;20476;-92
2023/05/20 07:59:17;;;;;;;4.73;2.23;;;16.70;99.90;;;;;;5076021;28;21016;-91
2023/05/20 08:01:44;;;;;;;4.23;2.57;;;16.70;99.90;;;;;;5075695;28;20544;-92
2023/05/20 08:04:11;;;;;;;4.60;2.70;;;16.50;99.90;;;;;;5075422;28;20482;-92
2023/05/20 08:06:38;;;;;;;2.97;2.00;;;16.60;99.90;;;;;;5075063;28;20434;-91
2023/05/20 08:09:06;;;;;;;3.20;2.33;;;16.70;99.90;;;;;;5075404;28;20453;-93
2023/05/20 08:11:32;;;;;;;2.70;2.13;;;16.80;99.90;;;;;;5075030;28;20867;-92
2023/05/20 08:14:01;;;;;;;3.13;2.20;;;16.70;99.90;;;;;;5075436;28;20475;-90
2023/05/20 08:16:28;;;;;;;3.23;2.37;;;16.70;99.90;;;;;;5075534;28;20438;-93
2023/05/20 08:18:55;;;;;;;3.30;2.10;;;16.70;99.90;;;;;;5075309;28;20465;-91
2023/05/20 08:21:22;;;;;;;2.13;1.93;;;16.70;99.90;;;;;;5074659;28;20965;-92
2023/05/20 08:23:49;;;;;;;2.07;1.70;;;16.60;99.90;;;;;;5075269;28;20497;-91
2023/05/20 08:26:16;;;;;;;2.30;1.87;;;16.50;99.90;;;;;;5075134;28;20446;-90
2023/05/20 08:28:42;;;;;;;10.70;2.53;;;16.40;99.90;;;;;;5074720;28;20465;-92
2023/05/20 08:31:11;;;;;;;3.70;2.63;;;16.30;99.90;;;;;;5074466;28;20434;-92
2023/05/20 08:33:37;;;;;;;2.67;2.23;;;16.20;99.90;;;;;;5074738;28;20458;-91
2023/05/20 08:36:05;;;;;;;3.53;2.50;;;16.10;99.90;;;;;;5074728;28;20437;-91
2023/05/20 08:38:32;;;;;;;2.67;2.47;;;16.20;99.90;;;;;;5074408;28;20503;-90
2023/05/20 08:40:59;;;;;;;3.60;2.53;;;16.20;99.90;;;;;;5074535;28;20440;-94
2023/05/20 08:43:26;;;;;;;3.07;2.30;;;16.30;99.90;;;;;;5074233;28;20988;-90
2023/05/20 08:45:54;;;;;;;3.83;2.30;;;16.50;99.90;;;;;;5074789;28;20457;-93
2023/05/20 08:48:23;;;;;;;2.77;2.57;;;16.80;99.90;;;;;;5074834;28;20414;-91
2023/05/20 08:50:51;;;;;;;3.37;2.60;;;17.00;99.90;;;;;;5074611;28;20445;-91
2023/05/20 08:53:18;;;;;;;2.57;2.20;;;17.30;99.90;;;;;;5074466;28;20454;-91
2023/05/20 08:55:52;;;;;;;6.13;2.30;;;17.60;99.90;;;;;;5074464;28;20433;-91
2023/05/20 08:58:20;;;;;;;3.03;2.40;;;17.70;99.90;;;;;;5074612;28;20466;-92
2023/05/20 09:00:46;;;;;;;2.47;2.10;;;17.80;99.90;;;;;;5075080;28;20458;-92
2023/05/20 09:03:13;;;;;;;2.07;1.97;;;17.90;99.90;;;;;;5074267;28;20473;-90
2023/05/20 09:05:41;;;;;;;7.97;1.80;;;18.00;99.90;;;;;;5074761;28;20434;-93
2023/05/20 09:08:10;;;;;;;2.40;2.07;;;18.00;99.90;;;;;;5074531;28;20414;-92
2023/05/20 09:10:38;;;;;;;2.70;2.17;;;18.30;99.90;;;;;;5075591;28;20453;-91
2023/05/20 09:13:05;;;;;;;2.10;1.73;;;18.60;99.90;;;;;;5074331;28;20518;-91
2023/05/20 09:15:32;;;;;;;3.77;2.23;;;18.70;99.90;;;;;;5075079;28;20944;-94
2023/05/20 09:18:00;;;;;;;2.60;2.40;;;18.50;99.90;;;;;;5074275;28;20484;-91
2023/05/20 09:20:29;;;;;;;2.73;2.00;;;18.50;99.90;;;;;;5074370;28;20805;-91
2023/05/20 09:23:01;;;;;;;3.53;3.17;;;18.50;99.90;;;;;;5074582;28;20468;-90
2023/05/20 09:25:29;;;;;;;2.13;1.93;;;18.40;99.90;;;;;;5074957;28;20446;-91
2023/05/20 09:27:56;;;;;;;2.20;2.00;;;18.50;99.90;;;;;;5074349;28;20851;-92
2023/05/20 09:30:23;;;;;;;16.23;2.90;;;18.70;99.90;;;;;;5074835;28;20461;-91
2023/05/20 09:32:53;;;;;;;2.30;2.10;;;18.80;99.90;;;;;;5074396;28;20414;-94
2023/05/20 09:35:22;;;;;;;2.70;2.50;;;19.00;99.90;;;;;;5074176;28;20449;-91
2023/05/20 09:37:52;;;;;;;2.90;2.30;;;19.20;99.90;;;;;;5074779;28;20477;-92
2023/05/20 09:40:23;;;;;;;2.30;1.73;;;19.50;99.90;;;;;;5074568;28;20461;-91
2023/05/20 09:42:54;;;;;;;3.00;2.50;;;19.70;99.90;;;;;;5074265;28;20452;-94
2023/05/20 09:45:21;;;;;;;2.40;2.00;;;19.90;99.90;;;;;;5074480;28;20428;-92
2023/05/20 09:47:51;;;;;;;2.30;2.10;;;20.00;99.90;;;;;;5078477;28;20437;-91
2023/05/20 09:50:20;;;;;;;1.80;1.70;;;20.10;99.90;;;;;;5073740;28;20437;-91
2023/05/20 09:52:47;;;;;;;2.80;2.50;;;20.00;99.90;;;;;;5073845;28;20458;-93
2023/05/20 09:55:15;;;;;;;4.00;2.57;;;19.90;99.90;;;;;;5073839;28;20473;-91
2023/05/20 09:57:43;;;;;;;2.60;2.37;;;19.70;99.90;;;;;;5073625;28;21023;-92
2023/05/20 10:00:12;;;;;;;3.03;2.47;;;19.70;99.90;;;;;;5074249;28;20469;-94
2023/05/20 10:02:42;;;;;;;2.80;1.67;;;19.50;99.90;;;;;;5076401;28;20484;-90
2023/05/20 10:05:15;;;;;;;5.03;3.07;;;19.30;99.90;;;;;;5077491;28;20456;-93
2023/05/20 10:08:26;;;;;;;3.57;2.33;;;19.20;99.90;;;;;;5077972;28;20445;-92
2023/05/20 10:10:58;;;;;;;2.47;2.00;;;19.00;99.90;;;;;;5077409;28;20438;-91
2023/05/20 10:13:43;;;;;;;3.20;2.10;;;19.00;99.90;;;;;;5077183;28;20453;-92
2023/05/20 10:16:23;;;;;;;2.93;2.20;;;19.30;99.90;;;;;;5077955;28;20443;-91
2023/05/20 10:19:05;;;;;;;3.27;2.50;;;19.60;99.90;;;;;;5077257;28;20473;-93
2023/05/20 10:21:32;;;;;;;3.07;2.23;;;19.80;99.90;;;;;;5077193;28;20414;-93
2023/05/20 10:24:06;;;;;;;6.37;3.30;;;19.80;99.90;;;;;;5076967;28;20472;-93
2023/05/20 10:26:36;;;;;;;4.70;3.20;;;19.90;99.90;;;;;;5076971;28;20418;-92
2023/05/20 10:29:14;;;;;;;3.30;2.13;;;19.80;99.90;;;;;;5076838;28;20445;-93
2023/05/20 10:31:45;;;;;;;2.57;2.37;;;19.70;99.90;;;;;;5077654;28;20459;-91
2023/05/20 10:34:16;;;;;;;3.90;2.77;;;19.50;99.90;;;;;;5076626;28;20465;-85
2023/05/20 10:36:46;;;;;;;3.10;2.53;;;19.50;99.90;;;;;;5076411;28;20434;-90
2023/05/20 10:39:16;;;;;;;3.10;2.57;;;19.50;99.90;;;;;;5076914;28;20473;-91
2023/05/20 10:41:43;;;;;;;3.13;2.83;;;19.50;99.90;;;;;;5076571;28;20451;-90
2023/05/20 10:44:11;;;;;;;3.70;3.40;;;19.40;99.90;;;;;;5076356;28;20462;-91
2023/05/20 10:46:39;;;;;;;5.00;3.23;;;19.50;99.90;;;;;;5076660;28;20453;-90
2023/05/20 10:49:16;;;;;;;2.20;1.97;;;19.50;99.90;;;;;;5076547;28;20465;-92
2023/05/20 10:51:45;;;;;;;1.97;1.87;;;19.60;99.90;;;;;;5076649;28;20801;-91
2023/05/20 10:54:12;;;;;;;5.50;2.87;;;19.50;99.90;;;;;;5076569;28;20473;-91
2023/05/20 10:56:50;;;;;;;3.70;2.60;;;19.60;99.90;;;;;;5076371;28;20945;-90
2023/05/20 10:59:18;;;;;;;2.97;2.20;;;20.00;99.90;;;;;;5076286;28;20462;-92
2023/05/20 11:01:46;;;;;;;4.33;2.73;;;20.10;99.90;;;;;;5076445;28;20929;-91
2023/05/20 11:04:13;;;;;;;2.40;2.20;;;20.20;99.90;;;;;;5076326;28;20485;-91
2023/05/20 11:06:50;;;;;;;3.23;2.37;;;20.40;99.90;;;;;;5076123;28;20406;-88
2023/05/20 11:09:17;;;;;;;2.40;2.17;;;20.30;99.90;;;;;;5076250;28;20429;-89
2023/05/20 11:11:43;;;;;;;2.40;2.13;;;20.10;99.90;;;;;;5076722;28;20456;-90
2023/05/20 11:14:12;;;;;;;2.80;2.37;;;20.10;99.90;;;;;;5076230;28;20469;-90
2023/05/20 11:16:41;;;;;;;3.27;2.00;;;20.20;99.90;;;;;;5075914;28;20945;-88
2023/05/20 11:19:09;;;;;;;2.77;2.30;;;20.30;99.90;;;;;;5076020;28;20469;-88
2023/05/20 11:21:43;;;;;;;1.97;1.83;;;20.40;99.90;;;;;;5076187;28;20445;-88
2023/05/20 11:24:10;;;;;;;1.97;1.80;;;20.60;99.90;;;;;;5076245;28;20843;-88
2023/05/20 11:26:37;;;;;;;2.40;2.20;;;20.50;99.90;;;;;;5075944;28;20485;-90
2023/05/20 11:29:04;;;;;;;3.10;1.97;;;20.50;99.90;;;;;;5076007;28;20445;-89
2023/05/20 11:31:31;;;;;;;2.00;1.60;;;20.40;99.90;;;;;;5075824;28;20446;-91
2023/05/20 11:34:01;;;;;;;4.70;2.37;;;20.40;99.90;;;;;;5075465;28;20449;-88
2023/05/20 11:36:29;;;;;;;2.67;2.20;;;20.50;99.90;;;;;;5075612;28;20971;-89
2023/05/20 11:38:57;;;;;;;2.40;2.20;;;20.50;99.90;;;;;;5075662;28;20485;-91
2023/05/20 11:41:25;;;;;;;2.70;2.10;;;20.50;99.90;;;;;;5075955;28;20499;-89
2023/05/20 11:43:57;;;;;;;2.77;2.00;;;20.50;99.90;;;;;;5075767;28;20465;-90
2023/05/20 11:46:24;;;;;;;2.10;1.80;;;20.50;99.90;;;;;;5076015;28;20445;-91
2023/05/20 11:48:54;;;;;;;1.93;1.80;;;20.60;99.90;;;;;;5076021;28;20853;-91
2023/05/20 11:51:26;;;;;;;3.33;1.90;;;20.60;99.90;;;;;;5075737;28;20535;-89
2023/05/20 11:53:53;;;;;;;2.97;2.20;;;20.60;99.90;;;;;;5076003;28;20469;-90
2023/05/20 11:56:21;;;;;;;3.23;2.17;;;20.60;99.90;;;;;;5075636;28;20448;-90
2023/05/20 11:58:48;;;;;;;2.70;2.07;;;20.60;99.90;;;;;;5074971;28;20476;-90
2023/05/20 12:01:15;;;;;;;3.03;2.73;;;20.60;99.90;;;;;;5075306;28;20433;-90
2023/05/20 12:03:42;;;;;;;2.90;2.60;;;20.60;99.90;;;;;;5075322;28;20493;-91
2023/05/20 12:06:11;;;;;;;2.10;1.90;;;20.70;99.90;;;;;;5075193;28;20441;-89
2023/05/20 12:08:40;;;;;;;3.20;2.60;;;21.00;99.90;;;;;;5075496;28;20795;-91
2023/05/20 12:11:06;;;;;;;5.83;2.13;;;21.10;99.90;;;;;;5075361;28;20443;-89
2023/05/20 12:13:34;;;;;;;2.73;1.90;;;21.20;99.90;;;;;;5075087;28;20544;-90
2023/05/20 12:16:01;;;;;;;2.27;1.60;;;21.30;99.90;;;;;;5075647;28;20453;-90
2023/05/20 12:18:28;;;;;;;4.93;2.33;;;21.50;99.90;;;;;;5075415;28;20484;-90
2023/05/20 12:20:55;;;;;;;5.00;2.23;;;21.60;99.90;;;;;;5074722;28;20453;-89
2023/05/20 12:23:21;;;;;;;4.40;1.60;;;21.60;99.90;;;;;;5074883;28;20465;-89
2023/05/20 12:25:49;;;;;;;1.87;1.77;;;21.50;99.90;;;;;;5074453;28;20452;-91
2023/05/20 12:28:17;;;;;;;2.50;2.00;;;21.60;99.90;;;;;;5074701;28;20450;-91
2023/05/20 12:30:43;;;;;;;2.57;2.00;;;21.70;99.90;;;;;;5074758;28;20818;-89
2023/05/20 12:33:10;;;;;;;2.13;1.80;;;21.70;99.90;;;;;;5074467;28;20443;-91
2023/05/20 12:35:38;;;;;;;2.97;2.20;;;21.60;99.90;;;;;;5074831;28;20947;-91
2023/05/20 12:38:05;;;;;;;3.57;2.30;;;21.50;99.90;;;;;;5074605;28;20464;-92
2023/05/20 12:40:33;;;;;;;3.23;2.17;;;21.50;99.90;;;;;;5074584;28;20920;-90
2023/05/20 12:43:01;;;;;;;4.40;2.47;;;21.40;99.90;;;;;;5074300;28;20440;-89
2023/05/20 12:45:28;;;;;;;1.87;1.70;;;21.50;99.90;;;;;;5075066;28;20813;-89
2023/05/20 12:47:56;;;;;;;2.27;2.07;;;21.50;99.90;;;;;;5074279;28;20460;-88
2023/05/20 12:50:24;;;;;;;6.00;2.40;;;21.60;99.90;;;;;;5074155;28;20439;-90